Terminal Aerodrome Forecast
Issued by NWS

Home | Current Version | Previous Version | Text Only | Print | Product List | Glossary On
Versions: 1 2 3 4 5 6 7 8 9 10 11 12
935
FTUS42 TJSJ 292343
TAFIST
TAF
TIST 292343Z 3000/3024 01010KT P6SM FEW025
     FM301300 04011KT P6SM VCSH FEW030 FEW060
     FM302300 07007KT P6SM FEW025=

USA.gov is the U.S. government's official web portal to all federal, state and local government web resources and services.